createdAt,value
2019-01-04T00:01:40.142Z,5.00
2019-01-04T00:04:29.086Z,5.43
2019-01-04T00:07:17.939Z,4.40
2019-01-04T00:10:07.007Z,4.57
2019-01-04T00:12:55.911Z,4.13
2019-01-04T00:15:37.360Z,4.63
2019-01-04T00:18:26.221Z,4.60
2019-01-04T00:21:15.109Z,4.60
2019-01-04T00:24:04.034Z,4.60
2019-01-04T00:26:52.841Z,4.53
2019-01-04T00:29:41.760Z,4.40
2019-01-04T00:32:30.596Z,4.93
2019-01-04T00:35:19.483Z,5.10
2019-01-04T00:38:08.467Z,5.47
2019-01-04T00:40:57.333Z,6.13
2019-01-04T00:43:46.245Z,5.40
2019-01-04T00:46:15.850Z,4.83
2019-01-04T00:49:04.765Z,5.07
2019-01-04T00:51:53.643Z,6.30
2019-01-04T00:54:42.560Z,4.60
2019-01-04T01:02:00.477Z,4.93
2019-01-04T01:05:27.979Z,4.80
2019-01-04T01:08:55.522Z,4.60
2019-01-04T01:15:20.481Z,5.00
2019-01-04T01:18:48.007Z,4.80
2019-01-04T01:21:57.795Z,5.20
2019-01-04T01:25:07.610Z,4.63
2019-01-04T01:32:07.806Z,4.37
2019-01-04T01:35:35.305Z,5.57
2019-01-04T01:38:45.098Z,4.53
2019-01-04T01:41:54.923Z,4.80
2019-01-04T01:45:22.448Z,5.23
2019-01-04T01:51:48.274Z,4.73
2019-01-04T01:54:29.698Z,5.40
2019-01-04T01:57:18.511Z,5.30
2019-01-04T02:00:07.772Z,5.47
2019-01-04T02:02:56.608Z,5.70
2019-01-04T02:05:45.416Z,5.87
2019-01-04T02:08:34.245Z,5.37
2019-01-04T02:11:23.068Z,5.20
2019-01-04T02:14:11.914Z,6.97
2019-01-04T02:17:00.717Z,7.63
2019-01-04T02:19:49.630Z,8.50
2019-01-04T02:22:38.426Z,8.23
2019-01-04T02:25:27.277Z,7.50
2019-01-04T02:28:16.145Z,8.33
2019-01-04T02:30:57.672Z,8.17
2019-01-04T02:33:46.482Z,9.00
2019-01-04T02:36:35.321Z,9.07
2019-01-04T02:39:24.152Z,8.43
2019-01-04T02:42:12.980Z,8.20
2019-01-04T02:45:01.796Z,8.00
2019-01-04T02:47:50.666Z,7.83
2019-01-04T02:50:39.473Z,7.93
2019-01-04T02:53:28.321Z,8.03
2019-01-04T02:56:17.128Z,7.07
2019-01-04T02:59:05.962Z,9.33
2019-01-04T03:01:54.776Z,8.40
2019-01-04T03:04:43.590Z,8.50
2019-01-04T03:07:32.464Z,8.03
2019-01-04T03:10:21.297Z,8.37
2019-01-04T03:13:10.101Z,6.90
2019-01-04T03:15:52.136Z,7.30
2019-01-04T03:18:40.979Z,7.70
2019-01-04T03:21:29.775Z,7.07
2019-01-04T03:24:18.619Z,6.60
2019-01-04T03:27:00.384Z,6.90
2019-01-04T03:29:49.250Z,7.17
2019-01-04T03:32:38.080Z,8.20
2019-01-04T03:35:26.923Z,8.77
2019-01-04T03:38:15.758Z,8.33
2019-01-04T03:41:04.834Z,8.60
2019-01-04T03:43:53.756Z,7.83
2019-01-04T03:46:42.564Z,7.97
2019-01-04T03:49:31.409Z,8.60
2019-01-04T03:52:20.245Z,8.70
2019-01-04T03:55:09.165Z,8.70
2019-01-04T03:57:58.079Z,7.57
2019-01-04T04:00:46.946Z,7.40
2019-01-04T04:03:16.446Z,6.17
2019-01-04T04:06:05.286Z,7.33
2019-01-04T04:08:54.092Z,7.33
2019-01-04T04:11:42.915Z,7.07
2019-01-04T04:14:31.730Z,7.00
2019-01-04T04:17:13.776Z,7.23
2019-01-04T04:20:02.625Z,6.20
2019-01-04T04:22:51.435Z,7.30
2019-01-04T04:25:40.285Z,7.40
2019-01-04T04:28:29.190Z,8.23
2019-01-04T04:31:17.992Z,6.97
2019-01-04T04:34:06.894Z,8.00
2019-01-04T04:36:55.737Z,9.07
2019-01-04T04:39:44.545Z,7.67
2019-01-04T04:42:33.399Z,8.57
2019-01-04T04:45:22.216Z,7.93
2019-01-04T04:47:51.804Z,7.87
2019-01-04T04:50:33.999Z,6.83
2019-01-04T04:53:22.835Z,7.73
2019-01-04T04:56:11.659Z,9.13
2019-01-04T04:59:00.477Z,7.30
2019-01-04T05:01:49.298Z,7.73
2019-01-04T05:04:38.208Z,7.97
2019-01-04T05:07:20.120Z,8.27
2019-01-04T05:10:08.933Z,7.40
2019-01-04T05:12:57.774Z,6.77
2019-01-04T05:15:46.609Z,7.30
2019-01-04T05:18:35.435Z,7.80
2019-01-04T05:21:24.262Z,8.77
2019-01-04T05:24:13.071Z,8.27
2019-01-04T05:27:01.960Z,8.20
2019-01-04T05:29:50.825Z,9.40
2019-01-04T05:32:39.646Z,9.30
2019-01-04T05:35:28.444Z,8.90
2019-01-04T05:38:17.353Z,7.13
2019-01-04T05:41:06.170Z,8.10
2019-01-04T05:43:54.998Z,7.37
2019-01-04T05:46:36.450Z,7.27
2019-01-04T05:49:25.292Z,8.10
2019-01-04T05:52:14.092Z,8.73
2019-01-04T05:55:02.940Z,9.93
2019-01-04T05:57:51.817Z,9.57
2019-01-04T06:00:40.665Z,9.20
2019-01-04T06:03:29.490Z,8.87
2019-01-04T06:06:18.317Z,8.07
2019-01-04T06:09:08.204Z,8.27
2019-01-04T06:11:57.112Z,8.40
2019-01-04T06:14:45.948Z,9.47
2019-01-04T06:17:27.562Z,9.63
2019-01-04T06:20:16.507Z,9.03
2019-01-04T06:23:05.316Z,9.13
2019-01-04T06:25:54.147Z,10.37
2019-01-04T06:28:35.917Z,10.23
2019-01-04T06:31:24.735Z,13.93
2019-01-04T06:34:13.708Z,13.13
2019-01-04T06:37:02.554Z,14.00
2019-01-04T06:39:51.386Z,11.37
2019-01-04T06:42:40.188Z,12.73
2019-01-04T06:45:29.010Z,13.13
2019-01-04T06:48:17.871Z,11.20
2019-01-04T06:51:06.719Z,11.27
2019-01-04T06:53:55.572Z,11.63
2019-01-04T06:56:44.347Z,11.47
2019-01-04T06:59:33.182Z,11.93
2019-01-04T07:02:22.009Z,12.53
2019-01-04T07:04:51.504Z,14.47
2019-01-04T07:07:40.325Z,13.33
2019-01-04T07:10:29.179Z,10.63
2019-01-04T07:13:18.007Z,11.73
2019-01-04T07:16:06.850Z,11.30
2019-01-04T07:18:55.663Z,11.63
2019-01-04T07:21:25.158Z,10.87
2019-01-04T07:24:13.991Z,10.70
2019-01-04T07:27:02.833Z,10.10
2019-01-04T07:29:51.610Z,11.33
2019-01-04T07:32:40.458Z,9.73
2019-01-04T07:35:29.341Z,10.63
2019-01-04T07:38:18.179Z,9.63
2019-01-04T07:41:07.092Z,11.07
2019-01-04T07:43:55.937Z,11.70
2019-01-04T07:46:25.391Z,11.03
2019-01-04T07:49:14.215Z,9.67
2019-01-04T07:51:43.679Z,10.43
2019-01-04T07:54:32.534Z,10.70
2019-01-04T07:57:21.397Z,9.40
2019-01-04T08:00:31.140Z,9.10
2019-01-04T08:03:19.968Z,7.93
2019-01-04T08:06:08.773Z,9.77
2019-01-04T08:08:57.628Z,8.07
2019-01-04T08:11:46.537Z,6.90
2019-01-04T08:14:16.038Z,6.33
2019-01-04T08:17:04.979Z,6.17
2019-01-04T08:19:53.905Z,6.60
2019-01-04T08:22:42.791Z,6.43
2019-01-04T08:25:31.708Z,6.57
2019-01-04T08:28:01.200Z,5.80
2019-01-04T08:30:50.087Z,6.17
2019-01-04T08:33:38.867Z,7.17
2019-01-04T08:36:27.724Z,6.33
2019-01-04T08:38:57.325Z,6.50
2019-01-04T08:41:46.243Z,6.33
2019-01-04T08:44:35.064Z,6.30
2019-01-04T08:47:23.938Z,6.47
2019-01-04T08:50:12.784Z,6.57
2019-01-04T08:53:01.635Z,6.17
2019-01-04T08:55:50.516Z,6.37
2019-01-04T08:58:39.351Z,6.70
2019-01-04T09:01:08.893Z,7.17
2019-01-04T09:03:57.731Z,6.50
2019-01-04T09:06:46.551Z,6.27
2019-01-04T09:09:16.115Z,7.43
2019-01-04T09:12:05.018Z,7.20
2019-01-04T09:14:53.829Z,7.43
2019-01-04T09:17:35.930Z,6.20
2019-01-04T09:20:24.758Z,6.17
2019-01-04T09:22:54.252Z,6.30
2019-01-04T09:25:23.779Z,5.87
2019-01-04T09:27:53.299Z,6.13
2019-01-04T09:30:22.826Z,6.80
2019-01-04T09:32:52.320Z,5.67
2019-01-04T09:35:21.841Z,5.00
2019-01-04T09:37:51.287Z,6.10
2019-01-04T09:40:22.033Z,7.07
2019-01-04T09:42:51.524Z,6.87
2019-01-04T09:45:21.001Z,7.60
2019-01-04T09:47:50.506Z,6.87
2019-01-04T09:50:19.999Z,6.17
2019-01-04T09:52:49.543Z,6.50
2019-01-04T09:55:19.045Z,7.20
2019-01-04T09:57:48.519Z,6.57
2019-01-04T10:00:18.029Z,7.33
2019-01-04T10:02:47.601Z,7.70
2019-01-04T10:05:17.158Z,7.47
2019-01-04T10:07:46.639Z,8.10
2019-01-04T10:10:16.107Z,9.20
2019-01-04T10:12:45.606Z,8.10
2019-01-04T10:15:16.281Z,8.20
2019-01-04T10:17:45.930Z,8.77
2019-01-04T10:20:15.523Z,9.37
2019-01-04T10:22:45.024Z,8.90
2019-01-04T10:25:14.594Z,9.60
2019-01-04T10:27:44.063Z,9.43
2019-01-04T10:30:23.451Z,8.40
2019-01-04T10:32:52.992Z,9.20
2019-01-04T10:35:22.481Z,9.33
2019-01-04T10:37:52.020Z,8.87
2019-01-04T10:40:21.549Z,10.50
2019-01-04T10:42:51.062Z,9.53
2019-01-04T10:45:20.627Z,9.50
2019-01-04T10:47:50.098Z,10.07
2019-01-04T10:50:19.585Z,10.43
2019-01-04T10:52:49.058Z,9.30
2019-01-04T10:55:18.558Z,10.20
2019-01-04T10:57:48.089Z,9.60
2019-01-04T11:00:17.705Z,10.23
2019-01-04T11:02:47.209Z,9.47
2019-01-04T11:05:17.547Z,9.63
2019-01-04T11:07:47.181Z,9.83
2019-01-04T11:10:16.682Z,9.33
2019-01-04T11:12:46.158Z,9.90
2019-01-04T11:15:15.628Z,8.83
2019-01-04T11:17:45.125Z,8.90
2019-01-04T11:20:38.851Z,9.83
2019-01-04T11:23:34.748Z,8.83
2019-01-04T11:26:20.677Z,9.33
2019-01-04T11:29:12.316Z,8.03
2019-01-04T11:32:07.403Z,7.77
2019-01-04T11:34:52.652Z,8.60
2019-01-04T11:37:41.484Z,7.90
2019-01-04T11:40:47.895Z,8.27
2019-01-04T11:43:53.483Z,8.63
2019-01-04T11:46:30.575Z,8.73
2019-01-04T11:49:25.361Z,8.30
2019-01-04T11:52:05.271Z,8.50
2019-01-04T11:54:34.830Z,7.60
2019-01-04T11:57:04.395Z,7.67
2019-01-04T11:59:34.605Z,7.70
2019-01-04T12:02:04.244Z,7.37
2019-01-04T12:04:33.733Z,7.00
2019-01-04T12:07:03.227Z,7.50
2019-01-04T12:09:32.726Z,6.77
2019-01-04T12:12:02.214Z,6.93
2019-01-04T12:14:31.678Z,6.00
2019-01-04T12:17:20.518Z,6.00
2019-01-04T12:19:49.985Z,5.57
2019-01-04T12:22:31.674Z,5.30
2019-01-04T12:25:20.601Z,5.23
2019-01-04T12:28:09.508Z,4.93
2019-01-04T12:30:38.968Z,5.27
2019-01-04T12:33:27.899Z,4.80
2019-01-04T12:35:57.384Z,4.60
2019-01-04T12:38:46.220Z,5.30
2019-01-04T12:41:35.084Z,4.80
2019-01-04T12:44:23.901Z,4.33
2019-01-04T12:46:53.459Z,4.50
2019-01-04T12:49:23.032Z,5.60
2019-01-04T12:52:11.891Z,4.93
2019-01-04T12:55:00.821Z,4.73
2019-01-04T12:57:49.733Z,5.87
2019-01-04T13:00:38.606Z,5.73
2019-01-04T13:03:27.515Z,5.93
2019-01-04T13:06:16.349Z,6.27
2019-01-04T13:08:57.678Z,6.43
2019-01-04T13:11:46.517Z,5.77
2019-01-04T13:14:35.338Z,6.93
2019-01-04T13:17:24.169Z,6.43
2019-01-04T13:20:13.048Z,7.93
2019-01-04T13:23:01.982Z,9.33
2019-01-04T13:25:50.803Z,8.13
2019-01-04T13:28:20.387Z,7.67
2019-01-04T13:30:49.940Z,8.53
2019-01-04T13:33:19.476Z,8.87
2019-01-04T13:35:48.950Z,8.63
2019-01-04T13:38:20.129Z,8.87
2019-01-04T13:41:09.006Z,10.33
2019-01-04T13:46:47.027Z,9.13
2019-01-04T13:49:35.917Z,10.40
2019-01-04T13:52:24.751Z,10.67
2019-01-04T13:55:13.620Z,10.23
2019-01-04T13:58:02.551Z,9.50
2019-01-04T14:00:51.359Z,10.00
2019-01-04T14:03:40.203Z,11.20
2019-01-04T14:06:29.015Z,9.87
2019-01-04T14:09:17.863Z,8.93
2019-01-04T14:11:47.339Z,10.03
2019-01-04T14:14:36.242Z,9.00
2019-01-04T14:17:25.085Z,9.27
2019-01-04T14:20:14.066Z,10.33
2019-01-04T14:23:02.962Z,10.13
2019-01-04T14:25:51.867Z,9.93
2019-01-04T14:28:31.709Z,9.63
2019-01-04T14:31:20.548Z,10.37
2019-01-04T14:34:09.422Z,10.70
2019-01-04T14:36:58.216Z,11.03
2019-01-04T14:39:27.729Z,12.03
2019-01-04T14:42:16.580Z,12.07
2019-01-04T14:45:26.573Z,11.63
2019-01-04T14:48:15.431Z,10.97
2019-01-04T14:54:00.109Z,11.47
2019-01-04T14:56:48.924Z,11.83
2019-01-04T14:59:37.767Z,11.57
2019-01-04T15:02:07.436Z,12.37
2019-01-04T15:04:56.229Z,10.80
2019-01-04T15:07:25.755Z,11.43
2019-01-04T15:10:14.651Z,12.30
2019-01-04T15:13:03.532Z,12.20
2019-01-04T15:15:52.360Z,11.60
2019-01-04T15:18:21.881Z,11.53
2019-01-04T15:21:10.703Z,12.10
2019-01-04T15:23:59.578Z,12.40
2019-01-04T15:26:29.074Z,12.17
2019-01-04T15:29:17.950Z,11.30
2019-01-04T15:31:47.483Z,12.40
2019-01-04T15:34:36.567Z,11.93
2019-01-04T15:37:06.155Z,11.40
2019-01-04T15:39:55.128Z,11.90
2019-01-04T15:42:44.018Z,12.10
2019-01-04T15:45:32.933Z,12.57
2019-01-04T15:48:21.759Z,11.73
2019-01-04T15:51:10.629Z,13.07
2019-01-04T15:53:40.109Z,13.07
2019-01-04T15:56:28.972Z,12.13
2019-01-04T15:59:17.851Z,12.30
2019-01-04T16:02:06.973Z,13.57
2019-01-04T16:04:55.805Z,11.50
2019-01-04T16:07:44.647Z,12.80
2019-01-04T16:10:33.612Z,13.17
2019-01-04T16:13:22.422Z,13.17
2019-01-04T16:16:11.430Z,14.03
2019-01-04T16:19:00.298Z,14.53
2019-01-04T16:21:42.379Z,14.00
2019-01-04T16:24:31.260Z,14.83
2019-01-04T16:27:20.066Z,14.90
2019-01-04T16:30:29.892Z,13.40
2019-01-04T16:33:18.729Z,15.03
2019-01-04T16:36:00.039Z,15.03
2019-01-04T16:38:48.906Z,14.17
2019-01-04T16:41:37.750Z,14.90
2019-01-04T16:44:26.659Z,14.63
2019-01-04T16:47:15.571Z,16.40
2019-01-04T16:50:25.335Z,14.57
2019-01-04T16:53:14.179Z,15.27
2019-01-04T16:56:03.019Z,16.97
2019-01-04T16:58:51.887Z,19.30
2019-01-04T17:01:40.721Z,16.87
2019-01-04T17:04:29.571Z,16.50
2019-01-04T17:07:18.523Z,18.80
2019-01-04T17:10:07.505Z,19.33
2019-01-04T17:12:56.359Z,21.57
2019-01-04T17:15:45.216Z,17.67
2019-01-04T17:18:34.033Z,17.63
2019-01-04T17:21:23.002Z,20.33
2019-01-04T17:24:11.851Z,19.00
2019-01-04T17:27:00.648Z,18.10
2019-01-04T17:29:42.835Z,20.23
2019-01-04T17:32:31.655Z,19.30
2019-01-04T17:35:20.613Z,20.97
2019-01-04T17:38:09.430Z,20.13
2019-01-04T17:40:58.342Z,19.57
2019-01-04T17:43:27.909Z,20.53
2019-01-04T17:46:16.787Z,19.50
2019-01-04T17:49:05.614Z,18.77
2019-01-04T17:51:54.578Z,18.80
2019-01-04T17:54:43.542Z,19.10
2019-01-04T17:57:32.357Z,19.13
2019-01-04T18:00:21.328Z,19.77
2019-01-04T18:02:50.863Z,19.07
2019-01-04T18:05:39.800Z,21.27
2019-01-04T18:08:28.656Z,19.57
2019-01-04T18:11:17.540Z,19.67
2019-01-04T18:14:06.417Z,20.33
2019-01-04T18:16:55.403Z,19.20
2019-01-04T18:19:44.201Z,23.87
2019-01-04T18:22:27.292Z,20.47
2019-01-04T18:25:16.178Z,20.07
2019-01-04T18:28:05.089Z,19.37
2019-01-04T18:30:53.924Z,20.10
2019-01-04T18:33:42.772Z,17.80
2019-01-04T18:36:31.682Z,19.07
2019-01-04T18:39:20.498Z,17.47
2019-01-04T18:42:09.434Z,18.70
2019-01-04T18:44:38.983Z,17.27
2019-01-04T18:47:27.856Z,19.37
2019-01-04T18:53:18.952Z,20.00
2019-01-04T18:56:07.775Z,19.17
2019-01-04T18:58:56.652Z,19.37
2019-01-04T19:01:45.481Z,19.07
2019-01-04T19:04:37.235Z,19.27
2019-01-04T19:07:24.984Z,16.97
2019-01-04T19:10:13.896Z,17.23
2019-01-04T19:13:02.734Z,17.47
2019-01-04T19:15:51.604Z,19.33
2019-01-04T19:18:33.035Z,18.50
2019-01-04T19:21:21.962Z,18.97
2019-01-04T19:24:11.090Z,19.83
2019-01-04T19:27:00.033Z,19.83
2019-01-04T19:29:48.880Z,22.10
2019-01-04T19:32:37.908Z,17.47
2019-01-04T19:35:26.827Z,18.10
2019-01-04T19:38:15.745Z,19.20
2019-01-04T19:41:04.662Z,18.83
2019-01-04T19:43:53.501Z,18.57
2019-01-04T19:46:42.418Z,17.17
2019-01-04T19:49:31.304Z,19.00
2019-01-04T19:52:20.221Z,18.57
2019-01-04T19:55:09.030Z,17.50
2019-01-04T19:57:57.869Z,18.53
2019-01-04T20:00:46.739Z,17.57
2019-01-04T20:03:16.315Z,17.80
2019-01-04T20:07:02.991Z,18.43
2019-01-04T20:10:31.743Z,15.83
2019-01-04T20:14:00.535Z,17.97
2019-01-04T20:20:27.653Z,16.27
2019-01-04T20:23:36.541Z,17.97
2019-01-04T20:26:44.464Z,15.17
2019-01-04T20:29:52.446Z,17.40
2019-01-04T20:33:00.378Z,17.17
2019-01-04T20:36:08.324Z,15.73
2019-01-04T20:39:09.450Z,16.73
2019-01-04T20:45:16.609Z,15.73
2019-01-04T20:48:24.574Z,14.90
2019-01-04T20:51:32.509Z,13.57
2019-01-04T20:54:40.479Z,14.73
2019-01-04T20:57:29.005Z,16.07
2019-01-04T21:00:36.898Z,16.40
2019-01-04T21:03:44.803Z,16.00
2019-01-04T21:06:33.432Z,15.30
2019-01-04T21:09:41.410Z,14.97
2019-01-04T21:15:39.330Z,15.63
2019-01-04T21:18:47.164Z,14.93
2019-01-04T21:21:55.277Z,15.40
2019-01-04T21:24:56.443Z,15.20
2019-01-04T21:27:45.009Z,13.47
2019-01-04T21:33:48.388Z,13.40
2019-01-04T21:36:56.338Z,14.20
2019-01-04T21:39:45.071Z,13.27
2019-01-04T21:42:53.014Z,12.97
2019-01-04T21:46:00.959Z,13.07
2019-01-04T21:49:08.959Z,13.87
2019-01-04T21:51:57.632Z,14.97
2019-01-04T21:54:46.262Z,13.87
2019-01-04T21:57:35.138Z,13.80
2019-01-04T22:00:43.155Z,13.97
2019-01-04T22:03:31.739Z,14.97
2019-01-04T22:06:39.693Z,14.07
2019-01-04T22:12:37.614Z,13.00
2019-01-04T22:15:45.497Z,14.37
2019-01-04T22:18:53.444Z,14.10
2019-01-04T22:22:01.348Z,13.27
2019-01-04T22:25:02.213Z,13.97
2019-01-04T22:28:10.071Z,15.60
2019-01-04T22:31:17.969Z,13.83
2019-01-04T22:34:25.823Z,14.40
2019-01-04T22:37:33.746Z,14.87
2019-01-04T22:40:41.620Z,14.17
2019-01-04T22:43:30.218Z,14.77
2019-01-04T22:52:36.551Z,13.60
2019-01-04T22:55:44.436Z,13.30
2019-01-04T22:58:52.401Z,13.17
2019-01-04T23:05:09.752Z,13.83
2019-01-04T23:08:17.619Z,13.70
2019-01-04T23:11:00.984Z,13.43
2019-01-04T23:14:08.861Z,13.00
2019-01-04T23:17:16.832Z,13.43
2019-01-04T23:20:25.226Z,13.60
2019-01-04T23:26:29.088Z,13.03
2019-01-04T23:29:36.985Z,12.00
2019-01-04T23:32:44.866Z,12.43
2019-01-04T23:35:52.710Z,12.23
2019-01-04T23:39:00.643Z,13.03
2019-01-04T23:44:58.703Z,13.40
2019-01-04T23:47:44.867Z,13.33
2019-01-04T23:50:52.834Z,14.50
2019-01-04T23:54:00.690Z,13.43
2019-01-04T23:57:08.640Z,13.53
